EWG5L EDDH-LSZH
Flight info
| Callsign | EWG5L |
|---|---|
| Flight time | N/A |
| Altitude | 33000 |
| Route | IDEKO8C/05 IDEKO N850 ROBEG/N0430F350 N850 XAROL DCT SWALM/N0428F340 DCT OMOGI/N0435F350 T721 LAMGO/N0368F230 T721 RILAX |
| Aircraft | A320/M-SDE3FGHIRWY/LB1 |
Departure
| Time | 2026-02-19 21:13 |
|---|---|
| Airport | Hamburg Helmut Schmidt Airport (EDDH) |
Arrival
| Time | N/A |
|---|---|
| Airport | Zürich Airport (LSZH) |
| Time | Latitude | Longitude | Altitude | Speed | Heading |
|---|---|---|---|---|---|
| 2026-02-19 20:13 | 53.63074 | 10.00378 | 49 ft | 0 kts | 94° |
| 2026-02-19 20:43 | 53.63074 | 10.00361 | 48 ft | 3 kts | 93° |
| 2026-02-19 20:43 | 53.63075 | 10.00326 | 48 ft | 3 kts | 93° |
| 2026-02-19 20:44 | 53.63088 | 10.00268 | 44 ft | 3 kts | 153° |
| 2026-02-19 20:44 | 53.63100 | 10.00261 | 47 ft | 1 kts | 176° |
| 2026-02-19 20:44 | 53.63101 | 10.00260 | 47 ft | 0 kts | 176° |
| 2026-02-19 20:46 | 53.63097 | 10.00261 | 44 ft | 3 kts | 176° |
| 2026-02-19 20:46 | 53.63052 | 10.00238 | 48 ft | 7 kts | 206° |
| 2026-02-19 20:47 | 53.63012 | 10.00203 | 48 ft | 6 kts | 210° |
| 2026-02-19 20:47 | 53.62981 | 10.00169 | 48 ft | 1 kts | 213° |
| 2026-02-19 20:47 | 53.62978 | 10.00165 | 48 ft | 0 kts | 213° |
| 2026-02-19 20:48 | 53.62898 | 10.00077 | 47 ft | 0 kts | 213° |
| 2026-02-19 20:48 | 53.62881 | 10.00060 | 45 ft | 5 kts | 209° |
| 2026-02-19 20:48 | 53.62874 | 10.00053 | 47 ft | 0 kts | 212° |
| 2026-02-19 20:51 | 53.62870 | 10.00047 | 47 ft | 0 kts | 218° |
| 2026-02-19 20:53 | 53.62868 | 10.00045 | 48 ft | 3 kts | 218° |
| 2026-02-19 20:53 | 53.62808 | 9.99965 | 45 ft | 15 kts | 213° |
| 2026-02-19 20:53 | 53.62675 | 9.99841 | 44 ft | 25 kts | 216° |
| 2026-02-19 20:54 | 53.62632 | 9.99674 | 45 ft | 12 kts | 258° |
| 2026-02-19 20:54 | 53.62619 | 9.99576 | 45 ft | 1 kts | 258° |
| 2026-02-19 20:54 | 53.62618 | 9.99563 | 47 ft | 0 kts | 258° |
| 2026-02-19 20:54 | 53.62617 | 9.99558 | 47 ft | 1 kts | 258° |
| 2026-02-19 20:55 | 53.62612 | 9.99518 | 47 ft | 11 kts | 257° |
| 2026-02-19 20:55 | 53.62587 | 9.99310 | 47 ft | 19 kts | 258° |
| 2026-02-19 20:55 | 53.62564 | 9.99098 | 45 ft | 17 kts | 261° |
| 2026-02-19 20:55 | 53.62539 | 9.98886 | 47 ft | 19 kts | 260° |
| 2026-02-19 20:56 | 53.62516 | 9.98684 | 47 ft | 16 kts | 259° |
| 2026-02-19 20:56 | 53.62493 | 9.98484 | 47 ft | 18 kts | 259° |
| 2026-02-19 20:56 | 53.62473 | 9.98300 | 47 ft | 4 kts | 259° |
| 2026-02-19 20:56 | 53.62473 | 9.98298 | 47 ft | 0 kts | 259° |
| 2026-02-19 20:57 | 53.62467 | 9.98251 | 47 ft | 8 kts | 258° |
| 2026-02-19 20:57 | 53.62445 | 9.98127 | 45 ft | 14 kts | 246° |
| 2026-02-19 20:57 | 53.62378 | 9.97976 | 47 ft | 16 kts | 226° |
| 2026-02-19 20:58 | 53.62299 | 9.97825 | 47 ft | 17 kts | 230° |
| 2026-02-19 20:58 | 53.62228 | 9.97682 | 47 ft | 16 kts | 229° |
| 2026-02-19 20:58 | 53.62179 | 9.97542 | 47 ft | 10 kts | 265° |
| 2026-02-19 20:58 | 53.62180 | 9.97498 | 47 ft | 0 kts | 278° |
| 2026-02-19 21:08 | 53.62180 | 9.97494 | 47 ft | 2 kts | 278° |
| 2026-02-19 21:09 | 53.62203 | 9.97419 | 44 ft | 9 kts | 309° |
| 2026-02-19 21:09 | 53.62208 | 9.97410 | 44 ft | 0 kts | 315° |
| 2026-02-19 21:09 | 53.62211 | 9.97404 | 43 ft | 4 kts | 314° |
| 2026-02-19 21:10 | 53.62249 | 9.97361 | 40 ft | 9 kts | 328° |
| 2026-02-19 21:10 | 53.62303 | 9.97356 | 40 ft | 7 kts | 25° |
| 2026-02-19 21:10 | 53.62317 | 9.97371 | 38 ft | 0 kts | 38° |
| 2026-02-19 21:10 | 53.62329 | 9.97391 | 40 ft | 0 kts | 48° |
| 2026-02-19 21:12 | 53.62371 | 9.97481 | 40 ft | 37 kts | 52° |
| 2026-02-19 21:12 | 53.62693 | 9.98143 | 42 ft | 107 kts | 51° |
| 2026-02-19 21:13 | 53.63282 | 9.99355 | 61 ft | 157 kts | 54° |
| 2026-02-19 21:13 | 53.63997 | 10.00781 | 714 ft | 158 kts | 52° |
| 2026-02-19 21:13 | 53.64698 | 10.02166 | 1588 ft | 154 kts | 58° |
| 2026-02-19 21:13 | 53.65411 | 10.03630 | 2099 ft | 171 kts | 58° |
| 2026-02-19 21:14 | 53.66209 | 10.05292 | 2457 ft | 192 kts | 57° |
| 2026-02-19 21:14 | 53.67070 | 10.07066 | 3062 ft | 198 kts | 57° |
| 2026-02-19 21:14 | 53.67956 | 10.08870 | 3913 ft | 199 kts | 56° |
| 2026-02-19 21:14 | 53.69064 | 10.10353 | 4723 ft | 216 kts | 29° |
| 2026-02-19 21:15 | 53.70604 | 10.10592 | 4951 ft | 236 kts | 351° |
| 2026-02-19 21:15 | 53.72027 | 10.09171 | 5005 ft | 277 kts | 316° |
| 2026-02-19 21:15 | 53.73193 | 10.06490 | 5010 ft | 288 kts | 302° |
| 2026-02-19 21:15 | 53.74113 | 10.03477 | 5035 ft | 293 kts | 295° |
| 2026-02-19 21:16 | 53.74649 | 10.00097 | 5791 ft | 299 kts | 274° |
| 2026-02-19 21:16 | 53.74623 | 9.96585 | 6781 ft | 300 kts | 261° |
| 2026-02-19 21:16 | 53.74146 | 9.93163 | 7719 ft | 299 kts | 247° |
| 2026-02-19 21:16 | 53.73359 | 9.89919 | 8708 ft | 297 kts | 245° |
| 2026-02-19 21:17 | 53.72557 | 9.86689 | 9655 ft | 299 kts | 246° |
| 2026-02-19 21:17 | 53.71744 | 9.83448 | 10024 ft | 298 kts | 246° |
| 2026-02-19 21:17 | 53.70928 | 9.80213 | 10121 ft | 306 kts | 246° |
| 2026-02-19 21:17 | 53.70068 | 9.76815 | 10134 ft | 323 kts | 246° |
| 2026-02-19 21:18 | 53.69174 | 9.73291 | 10130 ft | 325 kts | 246° |
| 2026-02-19 21:18 | 53.68270 | 9.69740 | 10316 ft | 332 kts | 245° |
| 2026-02-19 21:18 | 53.67340 | 9.66115 | 11021 ft | 339 kts | 244° |
| 2026-02-19 21:18 | 53.66095 | 9.62730 | 11811 ft | 340 kts | 229° |
| 2026-02-19 21:19 | 53.64395 | 9.59976 | 12609 ft | 341 kts | 215° |
| 2026-02-19 21:19 | 53.62332 | 9.57986 | 13418 ft | 342 kts | 201° |
| 2026-02-19 21:19 | 53.60046 | 9.56905 | 14152 ft | 343 kts | 187° |
| 2026-02-19 21:19 | 53.57658 | 9.56436 | 14816 ft | 346 kts | 186° |
| 2026-02-19 21:20 | 53.55280 | 9.55980 | 15478 ft | 350 kts | 186° |
| 2026-02-19 21:20 | 53.52842 | 9.55504 | 16135 ft | 353 kts | 187° |
| 2026-02-19 21:20 | 53.50392 | 9.55016 | 16796 ft | 356 kts | 187° |
| 2026-02-19 21:20 | 53.47907 | 9.54519 | 17438 ft | 360 kts | 187° |
| 2026-02-19 21:21 | 53.45409 | 9.54021 | 18083 ft | 364 kts | 187° |
| 2026-02-19 21:21 | 53.43737 | 9.53689 | 18482 ft | 366 kts | 188° |
| 2026-02-19 21:21 | 53.41187 | 9.53184 | 19019 ft | 370 kts | 188° |
| 2026-02-19 21:21 | 53.37768 | 9.52517 | 19715 ft | 375 kts | 188° |
| 2026-02-19 21:22 | 53.35166 | 9.52013 | 20234 ft | 379 kts | 188° |
| 2026-02-19 21:22 | 53.33416 | 9.51674 | 20584 ft | 381 kts | 188° |
| 2026-02-19 21:22 | 53.30763 | 9.51156 | 21094 ft | 385 kts | 188° |
| 2026-02-19 21:22 | 53.28090 | 9.50631 | 21593 ft | 388 kts | 188° |
| 2026-02-19 21:23 | 53.25385 | 9.50099 | 22095 ft | 391 kts | 188° |
| 2026-02-19 21:23 | 53.22698 | 9.49570 | 22583 ft | 395 kts | 189° |
| 2026-02-19 21:23 | 53.19961 | 9.49028 | 23077 ft | 398 kts | 189° |
| 2026-02-19 21:23 | 53.17185 | 9.48482 | 23570 ft | 401 kts | 189° |
| 2026-02-19 21:24 | 53.14391 | 9.47936 | 23973 ft | 404 kts | 189° |
| 2026-02-19 21:24 | 53.11584 | 9.47392 | 24388 ft | 407 kts | 189° |
| 2026-02-19 21:24 | 53.08768 | 9.46852 | 24819 ft | 408 kts | 189° |
| 2026-02-19 21:24 | 53.05936 | 9.46310 | 25242 ft | 410 kts | 189° |
| 2026-02-19 21:25 | 53.03129 | 9.45767 | 25656 ft | 412 kts | 189° |
| 2026-02-19 21:25 | 53.00274 | 9.45214 | 26071 ft | 413 kts | 189° |
| 2026-02-19 21:25 | 52.97410 | 9.44653 | 26473 ft | 415 kts | 189° |
| 2026-02-19 21:25 | 52.94536 | 9.44060 | 26882 ft | 417 kts | 189° |
| 2026-02-19 21:26 | 52.91645 | 9.43440 | 27284 ft | 418 kts | 190° |
| 2026-02-19 21:26 | 52.88748 | 9.42802 | 27675 ft | 420 kts | 190° |
| 2026-02-19 21:26 | 52.85880 | 9.42169 | 28069 ft | 422 kts | 190° |
| 2026-02-19 21:26 | 52.82961 | 9.41532 | 28459 ft | 424 kts | 190° |
| 2026-02-19 21:27 | 52.80017 | 9.40900 | 28838 ft | 425 kts | 190° |
| 2026-02-19 21:27 | 52.77066 | 9.40274 | 29216 ft | 427 kts | 190° |
| 2026-02-19 21:27 | 52.74114 | 9.39647 | 29573 ft | 429 kts | 190° |
| 2026-02-19 21:27 | 52.71140 | 9.39015 | 29914 ft | 431 kts | 190° |
| 2026-02-19 21:28 | 52.68188 | 9.38390 | 30219 ft | 433 kts | 190° |
| 2026-02-19 21:28 | 52.65180 | 9.37755 | 30485 ft | 435 kts | 189° |
| 2026-02-19 21:28 | 52.62163 | 9.37114 | 30754 ft | 437 kts | 190° |
| 2026-02-19 21:28 | 52.59135 | 9.36412 | 31017 ft | 439 kts | 191° |
| 2026-02-19 21:29 | 52.56102 | 9.35631 | 31274 ft | 441 kts | 191° |
| 2026-02-19 21:29 | 52.53077 | 9.34802 | 31555 ft | 442 kts | 192° |
| 2026-02-19 21:29 | 52.50081 | 9.33968 | 31921 ft | 441 kts | 192° |
| 2026-02-19 21:29 | 52.47063 | 9.33140 | 32296 ft | 440 kts | 191° |
| 2026-02-19 21:30 | 52.44463 | 9.32443 | 32610 ft | 439 kts | 191° |
| 2026-02-19 21:30 | 52.44458 | 9.32442 | 32400 ft | 6 kts | 194° |
| 2026-02-19 21:30 | 52.44251 | 9.32405 | 27609 ft | 76 kts | 212° |